Time;durP1;ratioP1;P1;durP2;ratioP2;P2;SDS_P1;SDS_P2;PMS_P1;PMS_P2;Temp;Humidity;BMP_temperature;BMP_pressure;BME280_temperature;BME280_humidity;BME280_pressure;Samples;Min_cycle;Max_cycle;Signal;HPM_P1;HPM_P2
2024/03/01 00:01:37;;;;;;;;;;;7.30;99.90;;;;;;5025756;28;19994;-76
2024/03/01 00:04:03;;;;;;;;;;;7.30;99.90;;;;;;5025716;28;20495;-76
2024/03/01 00:06:28;;;;;;;;;;;7.40;99.90;;;;;;5025407;28;20088;-76
2024/03/01 00:08:55;;;;;;;;;;;7.50;99.90;;;;;;5019288;28;20064;-76
2024/03/01 00:11:20;;;;;;;;;;;7.50;99.90;;;;;;5018460;28;20029;-76
2024/03/01 00:13:46;;;;;;;;;;;7.40;99.90;;;;;;5025303;28;20159;-76
2024/03/01 00:16:12;;;;;;;;;;;7.40;99.90;;;;;;5025053;28;20349;-76
2024/03/01 00:18:37;;;;;;;;;;;7.40;99.90;;;;;;5025031;28;20467;-75
2024/03/01 00:21:03;;;;;;;;;;;7.40;99.90;;;;;;5025602;28;19985;-75
2024/03/01 00:23:29;;;;;;;;;;;7.30;99.90;;;;;;5025105;28;20006;-75
2024/03/01 00:25:55;;;;;;;;;;;7.30;99.90;;;;;;5025031;28;20100;-75
2024/03/01 00:28:20;;;;;;;;;;;7.30;99.90;;;;;;5024948;28;20003;-76
2024/03/01 00:30:46;;;;;;;;;;;7.30;99.90;;;;;;5023644;28;19989;-76
2024/03/01 00:33:12;;;;;;;;;;;7.40;99.90;;;;;;5025068;28;20039;-76
2024/03/01 00:35:38;;;;;;;;;;;7.30;99.90;;;;;;5024845;28;19994;-75
2024/03/01 00:38:03;;;;;;;;;;;7.40;99.90;;;;;;5024639;28;20033;-75
2024/03/01 00:40:29;;;;;;;;;;;7.30;99.90;;;;;;5024690;28;19985;-75
2024/03/01 00:42:54;;;;;;;;;;;7.30;99.90;;;;;;5024960;28;20020;-76
2024/03/01 00:45:20;;;;;;;;;;;7.30;99.90;;;;;;5024766;28;19990;-75
2024/03/01 00:47:47;;;;;;;;;;;7.20;99.90;;;;;;5024399;28;20522;-76
2024/03/01 00:50:12;;;;;;;;;;;7.20;99.90;;;;;;5023427;28;20021;-75
2024/03/01 00:52:38;;;;;;;;;;;7.20;99.90;;;;;;5024615;28;20036;-75
2024/03/01 00:55:05;;;;;;;;;;;7.10;99.90;;;;;;5023909;28;19986;-76
2024/03/01 00:57:30;;;;;;;;;;;7.10;99.90;;;;;;5022909;28;20108;-75
2024/03/01 00:59:56;;;;;;;;;;;7.10;99.90;;;;;;5022900;28;19990;-76
2024/03/01 01:02:21;;;;;;;;;;;7.10;99.90;;;;;;5024366;28;19985;-76
2024/03/01 01:04:47;;;;;;;;;;;7.00;99.90;;;;;;5024110;28;20024;-75
2024/03/01 01:07:13;;;;;;;;;;;6.90;99.90;;;;;;5024523;28;19995;-75
2024/03/01 01:09:39;;;;;;;;;;;7.00;99.90;;;;;;5012977;28;19994;-76
2024/03/01 01:12:04;;;;;;;;;;;7.10;99.90;;;;;;5024357;28;19993;-75
2024/03/01 01:14:30;;;;;;;;;;;6.90;99.90;;;;;;5024039;28;20008;-76
2024/03/01 01:16:55;;;;;;;;;;;6.80;99.90;;;;;;5023690;28;19985;-76
2024/03/01 01:19:21;;;;;;;;;;;6.90;99.90;;;;;;5024037;28;19982;-75
2024/03/01 01:21:46;;;;;;;;;;;6.90;99.90;;;;;;5017633;28;19996;-75
2024/03/01 01:24:12;;;;;;;;;;;6.90;99.90;;;;;;5022993;28;20063;-76
2024/03/01 01:26:38;;;;;;;;;;;6.90;99.90;;;;;;5023431;28;19990;-75
2024/03/01 01:29:03;;;;;;;;;;;7.00;99.90;;;;;;5023791;28;19985;-75
2024/03/01 01:31:29;;;;;;;;;;;7.00;99.90;;;;;;5023341;28;20032;-75
2024/03/01 01:33:55;;;;;;;;;;;6.90;99.90;;;;;;5023812;28;20551;-76
2024/03/01 01:36:21;;;;;;;;;;;6.90;99.90;;;;;;5024033;28;19986;-76
2024/03/01 01:38:46;;;;;;;;;;;6.90;99.90;;;;;;5019902;28;19999;-76
2024/03/01 01:41:12;;;;;;;;;;;6.90;99.90;;;;;;5023699;28;20392;-75
2024/03/01 01:43:42;;;;;;;;;;;6.90;99.90;;;;;;5023476;28;20014;-76
2024/03/01 01:46:08;;;;;;;;;;;6.80;99.90;;;;;;5023398;28;20084;-76
2024/03/01 01:48:34;;;;;;;;;;;6.50;99.90;;;;;;5021663;28;20015;-75
2024/03/01 01:51:00;;;;;;;;;;;6.40;99.90;;;;;;5022981;28;20022;-75
2024/03/01 01:53:25;;;;;;;;;;;6.40;99.90;;;;;;5023582;28;20708;-76
2024/03/01 01:55:51;;;;;;;;;;;6.40;99.90;;;;;;5020763;28;19985;-75
2024/03/01 01:58:17;;;;;;;;;;;6.40;99.90;;;;;;5023051;28;19986;-76
2024/03/01 02:00:43;;;;;;;;;;;6.50;99.90;;;;;;5023303;28;19989;-75
2024/03/01 02:03:10;;;;;;;;;;;6.50;99.90;;;;;;5022320;28;20010;-75
2024/03/01 02:05:36;;;;;;;;;;;6.60;99.90;;;;;;5021891;28;20037;-75
2024/03/01 02:08:01;;;;;;;;;;;6.60;99.90;;;;;;5022769;28;20025;-76
2024/03/01 02:10:27;;;;;;;;;;;6.60;99.90;;;;;;5010828;28;20016;-76
2024/03/01 02:12:53;;;;;;;;;;;6.50;99.90;;;;;;5022991;28;19990;-76
2024/03/01 02:15:19;;;;;;;;;;;6.60;99.90;;;;;;5023069;28;20562;-75
2024/03/01 02:17:44;;;;;;;;;;;6.60;99.90;;;;;;5023402;28;19993;-76
2024/03/01 02:20:10;;;;;;;;;;;6.60;99.90;;;;;;5022679;28;20437;-75
2024/03/01 02:22:38;;;;;;;;;;;6.50;99.90;;;;;;5022860;28;20013;-75
2024/03/01 02:25:04;;;;;;;;;;;6.40;99.90;;;;;;5023158;28;20067;-76
2024/03/01 02:27:30;;;;;;;;;;;6.50;99.90;;;;;;5023269;28;19993;-76
2024/03/01 02:29:55;;;;;;;;;;;6.60;99.90;;;;;;5022546;28;20397;-76
2024/03/01 02:32:21;;;;;;;;;;;6.60;99.90;;;;;;5022706;28;19985;-76
2024/03/01 02:34:47;;;;;;;;;;;6.60;99.90;;;;;;5023072;28;19996;-75
2024/03/01 02:37:12;;;;;;;;;;;6.50;99.90;;;;;;5022605;28;20017;-76
2024/03/01 02:39:38;;;;;;;;;;;6.50;99.90;;;;;;5022742;28;19989;-76
2024/03/01 02:42:03;;;;;;;;;;;6.50;99.90;;;;;;5022545;28;20804;-76
2024/03/01 02:44:29;;;;;;;;;;;6.60;99.90;;;;;;5022844;28;20067;-75
2024/03/01 02:46:55;;;;;;;;;;;6.60;99.90;;;;;;5022639;28;20032;-76
2024/03/01 02:49:20;;;;;;;;;;;6.50;99.90;;;;;;5022353;28;20018;-76
2024/03/01 02:51:46;;;;;;;;;;;6.60;99.90;;;;;;5022156;28;20085;-76
2024/03/01 02:54:11;;;;;;;;;;;6.50;99.90;;;;;;5023164;28;20076;-76
2024/03/01 02:56:37;;;;;;;;;;;6.50;99.90;;;;;;5018056;28;19986;-76
2024/03/01 02:59:02;;;;;;;;;;;6.50;99.90;;;;;;5022664;28;20073;-75
2024/03/01 03:01:30;;;;;;;;;;;6.40;99.90;;;;;;5022179;28;20428;-76
2024/03/01 03:03:56;;;;;;;;;;;6.40;99.90;;;;;;5022804;28;20049;-76
2024/03/01 03:06:21;;;;;;;;;;;6.50;99.90;;;;;;5022621;28;20545;-76
2024/03/01 03:08:47;;;;;;;;;;;6.40;99.90;;;;;;5018290;28;20504;-75
2024/03/01 03:11:13;;;;;;;;;;;6.40;99.90;;;;;;5014887;28;20465;-75
2024/03/01 03:13:39;;;;;;;;;;;6.40;99.90;;;;;;5025165;28;19986;-75
2024/03/01 03:16:04;;;;;;;;;;;6.40;99.90;;;;;;5026561;28;19997;-76
2024/03/01 03:18:30;;;;;;;;;;;6.50;99.90;;;;;;5026416;28;20020;-76
2024/03/01 03:20:55;;;;;;;;;;;6.40;99.90;;;;;;5026309;28;19992;-75
2024/03/01 03:23:21;;;;;;;;;;;6.40;99.90;;;;;;5026318;28;20124;-75
2024/03/01 03:25:47;;;;;;;;;;;6.40;99.90;;;;;;5026156;28;20089;-76
2024/03/01 03:28:14;;;;;;;;;;;6.40;99.90;;;;;;5026651;28;19986;-76
2024/03/01 03:30:40;;;;;;;;;;;6.30;99.90;;;;;;5026056;28;20040;-76
2024/03/01 03:33:06;;;;;;;;;;;6.30;99.90;;;;;;5026144;28;19994;-75
2024/03/01 03:35:32;;;;;;;;;;;6.40;99.90;;;;;;5026513;28;20484;-76
2024/03/01 03:37:57;;;;;;;;;;;6.30;99.90;;;;;;5025973;28;20409;-76
2024/03/01 03:40:23;;;;;;;;;;;6.30;99.90;;;;;;5025848;28;20091;-76
2024/03/01 03:42:48;;;;;;;;;;;6.40;99.90;;;;;;5025783;28;20013;-75
2024/03/01 03:45:14;;;;;;;;;;;6.30;99.90;;;;;;5025970;28;19989;-75
2024/03/01 03:47:40;;;;;;;;;;;6.20;99.90;;;;;;5025333;28;20103;-75
2024/03/01 03:50:08;;;;;;;;;;;6.20;99.90;;;;;;5025450;28;20101;-76
2024/03/01 03:52:34;;;;;;;;;;;6.30;99.90;;;;;;5025808;28;19986;-75
2024/03/01 03:55:00;;;;;;;;;;;6.30;99.90;;;;;;5025540;28;19986;-75
2024/03/01 03:57:26;;;;;;;;;;;6.30;99.90;;;;;;5025750;28;20352;-75
2024/03/01 03:59:52;;;;;;;;;;;6.30;99.90;;;;;;5024241;28;19989;-76
2024/03/01 04:02:17;;;;;;;;;;;6.30;99.90;;;;;;5025397;28;19990;-76
2024/03/01 04:04:43;;;;;;;;;;;6.30;99.90;;;;;;5025622;28;20950;-75
2024/03/01 04:07:08;;;;;;;;;;;6.40;99.90;;;;;;5024917;28;20496;-76
2024/03/01 04:09:36;;;;;;;;;;;6.30;99.90;;;;;;5014714;28;19986;-76
2024/03/01 04:12:05;;;;;;;;;;;6.20;99.90;;;;;;5024932;28;20076;-76
2024/03/01 04:14:32;;;;;;;;;;;6.30;99.90;;;;;;5025626;28;20780;-75
2024/03/01 04:16:57;;;;;;;;;;;6.20;99.90;;;;;;5025253;28;20020;-75
2024/03/01 04:19:23;;;;;;;;;;;6.20;99.90;;;;;;5025249;28;19982;-75
2024/03/01 04:21:52;;;;;;;;;;;6.20;99.90;;;;;;5024977;28;20838;-75
2024/03/01 04:24:18;;;;;;;;;;;6.30;99.90;;;;;;5024341;28;20017;-75
2024/03/01 04:26:43;;;;;;;;;;;6.30;99.90;;;;;;5024790;28;19994;-76
2024/03/01 04:29:09;;;;;;;;;;;6.10;99.90;;;;;;5024740;28;19982;-75
2024/03/01 04:31:35;;;;;;;;;;;6.20;99.90;;;;;;5024610;28;19986;-76
2024/03/01 04:34:04;;;;;;;;;;;6.20;99.90;;;;;;5025581;28;20257;-76
2024/03/01 04:36:30;;;;;;;;;;;6.10;99.90;;;;;;5025089;28;19993;-75
2024/03/01 04:38:55;;;;;;;;;;;6.00;99.90;;;;;;5024805;28;19986;-75
2024/03/01 04:41:21;;;;;;;;;;;6.10;99.90;;;;;;5025131;28;19993;-75
2024/03/01 04:43:46;;;;;;;;;;;6.00;99.90;;;;;;5025134;28;20005;-76
2024/03/01 04:46:13;;;;;;;;;;;5.80;99.90;;;;;;5024946;28;20338;-76
2024/03/01 04:48:38;;;;;;;;;;;5.80;99.90;;;;;;5024959;28;20012;-76
2024/03/01 04:51:10;;;;;;;;;;;6.00;99.90;;;;;;5024633;28;20006;-75
2024/03/01 04:53:36;;;;;;;;;;;5.80;99.90;;;;;;5035709;28;19998;-76
2024/03/01 04:56:02;;;;;;;;;;;5.70;99.90;;;;;;5021326;28;20409;-75
2024/03/01 04:58:28;;;;;;;;;;;5.80;99.90;;;;;;5024887;28;19989;-76
2024/03/01 05:00:53;;;;;;;;;;;5.80;99.90;;;;;;5024687;28;20094;-76
2024/03/01 05:03:19;;;;;;;;;;;5.60;99.90;;;;;;5024402;28;20053;-76
2024/03/01 05:05:45;;;;;;;;;;;5.30;99.90;;;;;;5024210;28;19993;-76
2024/03/01 05:08:10;;;;;;;;;;;5.20;99.90;;;;;;5024213;28;20076;-75
2024/03/01 05:10:36;;;;;;;;;;;5.30;99.90;;;;;;5011732;28;20368;-75
2024/03/01 05:13:02;;;;;;;;;;;5.40;99.90;;;;;;5024581;28;20486;-76
2024/03/01 05:15:27;;;;;;;;;;;5.60;99.90;;;;;;5024284;28;19994;-76
2024/03/01 05:17:53;;;;;;;;;;;5.70;99.90;;;;;;5024347;28;20476;-76
2024/03/01 05:20:19;;;;;;;;;;;5.80;99.90;;;;;;5023941;28;20018;-76
2024/03/01 05:22:44;;;;;;;;;;;5.90;99.90;;;;;;5023941;28;20040;-76
2024/03/01 05:25:16;;;;;;;;;;;5.90;99.90;;;;;;5024020;28;19989;-76
2024/03/01 05:27:42;;;;;;;;;;;5.90;99.90;;;;;;5024148;28;19982;-75
2024/03/01 05:30:12;;;;;;;;;;;5.80;99.90;;;;;;5023938;28;20348;-76
2024/03/01 05:32:44;;;;;;;;;;;5.80;99.90;;;;;;5018312;28;20528;-76
2024/03/01 05:35:10;;;;;;;;;;;5.80;99.90;;;;;;5023720;28;20093;-75
2024/03/01 05:37:36;;;;;;;;;;;5.80;99.90;;;;;;5023660;28;20072;-75
2024/03/01 05:40:03;;;;;;;;;;;5.70;99.90;;;;;;5022585;28;20488;-75
2024/03/01 05:42:28;;;;;;;;;;;5.70;99.90;;;;;;5018714;28;19990;-76
2024/03/01 05:44:54;;;;;;;;;;;5.80;99.90;;;;;;5023839;28;20607;-76
2024/03/01 05:47:19;;;;;;;;;;;5.80;99.90;;;;;;5023109;28;19993;-75
2024/03/01 05:49:46;;;;;;;;;;;5.90;99.90;;;;;;5023569;28;20018;-76
2024/03/01 05:52:11;;;;;;;;;;;5.90;99.90;;;;;;5023295;28;20026;-75
2024/03/01 05:54:37;;;;;;;;;;;5.90;99.90;;;;;;5022878;28;20093;-75
2024/03/01 05:57:02;;;;;;;;;;;5.80;99.90;;;;;;5023245;28;19985;-75
2024/03/01 05:59:28;;;;;;;;;;;6.00;99.90;;;;;;5022105;28;19994;-75
2024/03/01 06:01:54;;;;;;;;;;;6.00;99.90;;;;;;5024605;28;20045;-76
2024/03/01 06:04:20;;;;;;;;;;;6.00;99.90;;;;;;5023367;28;20010;-75
2024/03/01 06:06:45;;;;;;;;;;;6.10;99.90;;;;;;5023336;28;20084;-75
2024/03/01 06:09:11;;;;;;;;;;;6.10;99.90;;;;;;5015018;28;19994;-75
2024/03/01 06:11:37;;;;;;;;;;;6.00;99.90;;;;;;5018291;28;19982;-76
2024/03/01 06:14:02;;;;;;;;;;;5.90;99.90;;;;;;5021908;28;20399;-76
2024/03/01 06:16:31;;;;;;;;;;;6.00;99.90;;;;;;5023013;28;20136;-77
2024/03/01 06:18:57;;;;;;;;;;;6.00;99.90;;;;;;5010920;28;19993;-75
2024/03/01 06:21:23;;;;;;;;;;;6.10;99.90;;;;;;5022691;28;19986;-76
2024/03/01 06:23:48;;;;;;;;;;;6.00;99.90;;;;;;5022286;28;20014;-76
2024/03/01 06:26:14;;;;;;;;;;;6.20;99.90;;;;;;5022869;28;20532;-76
2024/03/01 06:28:42;;;;;;;;;;;6.10;99.90;;;;;;5022393;28;19986;-76
2024/03/01 06:31:08;;;;;;;;;;;6.10;99.90;;;;;;5022980;28;19986;-76
2024/03/01 06:33:33;;;;;;;;;;;6.00;99.90;;;;;;5022776;28;19985;-75
2024/03/01 06:35:59;;;;;;;;;;;5.90;99.90;;;;;;5022977;28;20441;-75
2024/03/01 06:38:25;;;;;;;;;;;6.00;99.90;;;;;;5022563;28;20021;-76
2024/03/01 06:40:50;;;;;;;;;;;6.00;99.90;;;;;;5020995;28;19990;-76
2024/03/01 06:43:16;;;;;;;;;;;6.00;99.90;;;;;;5022201;28;20013;-76
2024/03/01 06:45:41;;;;;;;;;;;6.10;99.90;;;;;;5022315;28;20107;-75
2024/03/01 06:48:07;;;;;;;;;;;5.90;99.90;;;;;;5021416;28;19994;-75
2024/03/01 06:50:33;;;;;;;;;;;5.80;99.90;;;;;;5020626;28;20034;-75
2024/03/01 06:52:58;;;;;;;;;;;5.80;99.90;;;;;;5021841;28;19989;-75
2024/03/01 06:55:24;;;;;;;;;;;5.80;99.90;;;;;;5017481;28;19992;-76
2024/03/01 06:57:50;;;;;;;;;;;5.80;99.90;;;;;;5022824;28;19985;-75
2024/03/01 07:00:15;;;;;;;;;;;5.70;99.90;;;;;;5022775;28;20088;-75
2024/03/01 07:02:41;;;;;;;;;;;5.80;99.90;;;;;;5020582;28;20567;-75
2024/03/01 07:05:07;;;;;;;;;;;6.00;99.90;;;;;;5022199;28;19986;-75
2024/03/01 07:07:32;;;;;;;;;;;6.20;99.90;;;;;;5021816;28;19993;-75
2024/03/01 07:09:58;;;;;;;;;;;6.30;99.90;;;;;;5009475;28;19990;-75
2024/03/01 07:12:24;;;;;;;;;;;6.50;99.90;;;;;;5022154;28;20001;-76
2024/03/01 07:14:50;;;;;;;;;;;6.70;99.90;;;;;;5020802;28;20013;-75
2024/03/01 07:17:15;;;;;;;;;;;6.60;99.90;;;;;;5022773;28;20396;-76
2024/03/01 07:19:41;;;;;;;;;;;6.70;99.90;;;;;;5021971;28;19989;-75
2024/03/01 07:22:07;;;;;;;;;;;6.60;99.90;;;;;;5022270;28;19986;-76
2024/03/01 07:24:33;;;;;;;;;;;6.40;99.90;;;;;;5022751;28;20045;-75
2024/03/01 07:26:58;;;;;;;;;;;6.40;99.90;;;;;;5020588;28;20052;-75
2024/03/01 07:29:24;;;;;;;;;;;6.70;99.90;;;;;;5017260;28;20349;-76
2024/03/01 07:31:49;;;;;;;;;;;7.00;99.20;;;;;;5022064;28;20391;-75
2024/03/01 07:34:15;;;;;;;;;;;7.10;98.30;;;;;;5022261;28;20025;-76
2024/03/01 07:36:40;;;;;;;;;;;7.30;97.90;;;;;;5022209;28;20100;-76
2024/03/01 07:39:08;;;;;;;;;;;7.60;97.50;;;;;;5022498;28;20021;-76
2024/03/01 07:41:33;;;;;;;;;;;7.50;97.40;;;;;;5022098;28;20604;-76
2024/03/01 07:43:59;;;;;;;;;;;7.00;97.90;;;;;;5016389;28;20014;-76
2024/03/01 07:46:24;;;;;;;;;;;6.90;98.30;;;;;;5022212;28;20566;-76
2024/03/01 07:48:50;;;;;;;;;;;6.90;99.10;;;;;;5022218;28;20825;-76
2024/03/01 07:51:15;;;;;;;;;;;7.20;98.80;;;;;;5021947;28;19990;-76
2024/03/01 07:53:41;;;;;;;;;;;7.30;98.40;;;;;;5022109;28;19992;-75
2024/03/01 07:56:07;;;;;;;;;;;7.40;98.00;;;;;;5022080;28;20040;-76
2024/03/01 07:58:35;;;;;;;;;;;7.40;97.60;;;;;;5021983;28;19985;-76
2024/03/01 08:01:01;;;;;;;;;;;7.10;97.60;;;;;;5024274;28;19986;-76
2024/03/01 08:03:27;;;;;;;;;;;7.40;98.10;;;;;;5025449;28;20012;-76
2024/03/01 08:05:52;;;;;;;;;;;7.50;97.40;;;;;;5025773;28;19986;-75
2024/03/01 08:08:30;;;;;;;;;;;7.50;97.30;;;;;;5024926;28;20096;-75
2024/03/01 08:10:56;;;;;;;;;;;7.50;97.60;;;;;;5031672;28;20008;-76
2024/03/01 08:13:21;;;;;;;;;;;7.70;97.60;;;;;;5025666;28;20478;-76
2024/03/01 08:15:47;;;;;;;;;;;7.70;96.90;;;;;;5025419;28;20596;-76
2024/03/01 08:18:17;;;;;;;;;;;7.80;97.10;;;;;;5024759;28;19986;-76
2024/03/01 08:20:55;;;;;;;;;;;8.10;96.60;;;;;;5024887;28;20040;-76
2024/03/01 08:23:20;;;;;;;;;;;8.40;96.10;;;;;;5024950;28;20005;-76
2024/03/01 08:25:46;;;;;;;;;;;8.20;95.40;;;;;;5025144;28;19986;-76
2024/03/01 08:28:16;;;;;;;;;;;8.00;95.90;;;;;;5023629;28;19997;-75
2024/03/01 08:30:44;;;;;;;;;;;8.50;95.20;;;;;;5018709;28;19986;-76
2024/03/01 08:33:12;;;;;;;;;;;8.90;94.00;;;;;;5024862;28;20453;-76
2024/03/01 08:35:39;;;;;;;;;;;9.40;93.10;;;;;;5025287;28;19986;-76
2024/03/01 08:38:25;;;;;;;;;;;10.30;91.30;;;;;;5024467;28;20085;-76
2024/03/01 08:40:54;;;;;;;;;;;10.20;90.40;;;;;;5025195;28;20431;-76
2024/03/01 08:43:20;;;;;;;;;;;11.90;85.00;;;;;;5025140;28;20006;-76
2024/03/01 08:45:46;;;;;;;;;;;12.90;81.80;;;;;;5024990;28;20651;-76
2024/03/01 08:48:15;;;;;;;;;;;12.10;81.90;;;;;;5023196;28;20041;-76
2024/03/01 08:50:47;;;;;;;;;;;11.70;83.10;;;;;;5024336;28;20145;-76
2024/03/01 08:53:28;;;;;;;;;;;11.30;83.10;;;;;;5024467;28;20032;-76
2024/03/01 08:55:54;;;;;;;;;;;10.40;84.30;;;;;;5024290;28;20005;-76
2024/03/01 08:58:23;;;;;;;;;;;9.90;87.60;;;;;;5024379;28;20008;-76
2024/03/01 09:00:50;;;;;;;;;;;9.10;88.90;;;;;;5024280;28;19996;-75
2024/03/01 09:03:18;;;;;;;;;;;8.80;90.10;;;;;;5023994;28;20006;-76
2024/03/01 09:05:44;;;;;;;;;;;8.70;90.20;;;;;;5024341;28;19993;-76
2024/03/01 09:08:12;;;;;;;;;;;8.60;90.60;;;;;;5024236;28;19990;-76
2024/03/01 09:10:38;;;;;;;;;;;8.70;90.80;;;;;;5011522;28;20674;-76
2024/03/01 09:13:04;;;;;;;;;;;9.00;90.90;;;;;;5023962;28;19986;-76
2024/03/01 09:15:36;;;;;;;;;;;9.50;90.50;;;;;;5024179;28;20081;-75
2024/03/01 09:18:01;;;;;;;;;;;9.80;88.20;;;;;;5023609;28;20069;-75
2024/03/01 09:20:34;;;;;;;;;;;9.70;87.90;;;;;;5022591;28;19985;-76
2024/03/01 09:23:00;;;;;;;;;;;9.80;87.70;;;;;;5023573;28;20056;-76
2024/03/01 09:25:35;;;;;;;;;;;9.70;88.20;;;;;;5019762;28;19985;-75
2024/03/01 09:28:01;;;;;;;;;;;9.60;88.50;;;;;;5023427;28;19986;-76
2024/03/01 09:30:26;;;;;;;;;;;9.90;89.10;;;;;;5018588;28;20539;-76
2024/03/01 09:32:52;;;;;;;;;;;10.00;88.80;;;;;;5023447;28;20396;-76
2024/03/01 09:35:17;;;;;;;;;;;9.90;87.60;;;;;;5023653;28;19990;-75
2024/03/01 09:37:43;;;;;;;;;;;9.60;88.20;;;;;;5023450;28;20408;-76
2024/03/01 09:40:31;;;;;;;;;;;9.30;87.60;;;;;;5023812;28;20116;-76
2024/03/01 09:43:03;;;;;;;;;;;9.60;89.40;;;;;;5022952;28;20138;-76
2024/03/01 09:45:29;;;;;;;;;;;9.90;87.20;;;;;;5023617;28;19990;-76
2024/03/01 09:48:14;;;;;;;;;;;9.50;87.20;;;;;;5023396;28;19996;-75
2024/03/01 09:50:42;;;;;;;;;;;9.30;88.10;;;;;;5023481;28;20025;-76
2024/03/01 09:53:08;;;;;;;;;;;9.30;88.00;;;;;;5023357;28;20312;-76
2024/03/01 09:55:49;;;;;;;;;;;9.40;88.00;;;;;;5023218;28;19985;-76
2024/03/01 09:58:21;;;;;;;;;;;9.20;88.80;;;;;;5023288;28;20751;-76
2024/03/01 10:00:50;;;;;;;;;;;9.20;88.90;;;;;;5023238;28;19986;-76
2024/03/01 10:03:31;;;;;;;;;;;9.50;88.80;;;;;;5023600;28;20013;-76
2024/03/01 10:06:15;;;;;;;;;;;9.60;87.60;;;;;;5023360;28;19993;-76
2024/03/01 10:08:40;;;;;;;;;;;9.50;87.50;;;;;;5023064;28;19982;-76
2024/03/01 10:11:12;;;;;;;;;;;9.50;87.70;;;;;;5013921;28;19993;-76
2024/03/01 10:13:37;;;;;;;;;;;9.30;86.80;;;;;;5022946;28;19986;-76
2024/03/01 10:16:35;;;;;;;;;;;9.30;87.10;;;;;;5022702;28;20021;-76
2024/03/01 10:19:13;;;;;;;;;;;9.50;87.50;;;;;;4999138;28;19992;-76
2024/03/01 10:21:42;;;;;;;;;;;9.80;86.60;;;;;;5021352;28;20403;-76
2024/03/01 10:24:29;;;;;;;;;;;10.00;85.70;;;;;;5022000;28;20030;-76
2024/03/01 10:27:14;;;;;;;;;;;9.70;87.10;;;;;;5001926;28;19990;-76
2024/03/01 10:30:02;;;;;;;;;;;9.50;86.30;;;;;;5017173;28;19982;-76
2024/03/01 10:32:46;;;;;;;;;;;9.00;85.90;;;;;;5022085;28;20007;-76
2024/03/01 10:35:19;;;;;;;;;;;8.70;88.70;;;;;;5023043;28;20001;-75
2024/03/01 10:37:58;;;;;;;;;;;8.50;88.50;;;;;;5022552;28;19993;-75
2024/03/01 10:40:23;;;;;;;;;;;8.70;90.00;;;;;;5022709;28;20096;-76
2024/03/01 10:43:11;;;;;;;;;;;8.30;91.10;;;;;;5022798;28;19985;-75
2024/03/01 10:45:42;;;;;;;;;;;8.40;91.60;;;;;;5020088;28;19993;-75
2024/03/01 10:48:08;;;;;;;;;;;8.70;91.00;;;;;;5021995;28;20037;-75
2024/03/01 10:50:39;;;;;;;;;;;8.50;91.70;;;;;;5020964;28;20061;-76
2024/03/01 10:53:13;;;;;;;;;;;8.60;91.90;;;;;;5022549;28;19992;-75
2024/03/01 10:55:41;;;;;;;;;;;8.60;91.50;;;;;;5020157;28;19996;-75
2024/03/01 10:58:09;;;;;;;;;;;8.80;92.80;;;;;;5022136;28;19990;-76
2024/03/01 11:00:37;;;;;;;;;;;9.30;91.50;;;;;;5020581;28;19990;-76
2024/03/01 11:03:12;;;;;;;;;;;10.20;90.40;;;;;;5021185;28;20009;-76
2024/03/01 11:05:51;;;;;;;;;;;10.70;87.80;;;;;;5020089;28;19986;-76
2024/03/01 11:08:20;;;;;;;;;;;10.80;86.90;;;;;;5020389;28;19989;-76
2024/03/01 11:10:55;;;;;;;;;;;10.80;85.20;;;;;;5021163;28;19985;-76
2024/03/01 11:13:22;;;;;;;;;;;10.40;86.50;;;;;;5019490;28;19986;-76
2024/03/01 11:15:48;;;;;;;;;;;9.90;88.90;;;;;;5021044;28;19998;-76
2024/03/01 11:18:17;;;;;;;;;;;9.40;89.30;;;;;;5020849;28;19986;-76
2024/03/01 11:20:49;;;;;;;;;;;9.20;90.50;;;;;;5018323;28;20032;-77
2024/03/01 11:23:24;;;;;;;;;;;9.20;90.40;;;;;;5016449;28;20010;-76
2024/03/01 11:25:53;;;;;;;;;;;9.20;90.70;;;;;;5018392;28;20029;-76
2024/03/01 11:28:23;;;;;;;;;;;9.50;90.50;;;;;;5021335;28;20066;-75
2024/03/01 11:30:51;;;;;;;;;;;9.50;90.30;;;;;;5021270;28;20854;-75
2024/03/01 11:33:20;;;;;;;;;;;9.00;90.50;;;;;;5019506;28;19990;-75
2024/03/01 11:35:46;;;;;;;;;;;8.80;90.80;;;;;;5023768;28;19993;-75
2024/03/01 11:38:18;;;;;;;;;;;8.70;91.40;;;;;;5024803;28;20008;-76
2024/03/01 11:41:02;;;;;;;;;;;9.00;91.30;;;;;;5020121;28;20008;-75
2024/03/01 11:43:37;;;;;;;;;;;9.10;91.60;;;;;;5024593;28;20392;-76
2024/03/01 11:46:21;;;;;;;;;;;9.40;90.50;;;;;;5030198;28;19989;-76
2024/03/01 11:49:02;;;;;;;;;;;9.40;90.10;;;;;;5024442;28;20084;-75
2024/03/01 11:51:46;;;;;;;;;;;9.20;90.40;;;;;;5025430;28;20064;-75
2024/03/01 11:54:12;;;;;;;;;;;9.30;90.60;;;;;;5023152;28;20052;-75
2024/03/01 11:57:02;;;;;;;;;;;9.10;90.80;;;;;;5024456;28;19990;-76
2024/03/01 11:59:33;;;;;;;;;;;9.30;90.30;;;;;;5025813;28;19986;-76
2024/03/01 12:02:16;;;;;;;;;;;9.30;90.40;;;;;;5023183;28;19997;-76
2024/03/01 12:04:47;;;;;;;;;;;9.10;90.40;;;;;;5024707;28;20178;-76
2024/03/01 12:07:31;;;;;;;;;;;9.10;90.20;;;;;;5023225;28;20040;-76
2024/03/01 12:10:00;;;;;;;;;;;9.10;90.50;;;;;;5020662;28;19996;-76
2024/03/01 12:12:30;;;;;;;;;;;8.90;90.40;;;;;;5024861;28;19990;-76
2024/03/01 12:14:59;;;;;;;;;;;9.00;90.80;;;;;;5024621;28;20066;-76
2024/03/01 12:17:25;;;;;;;;;;;8.80;90.90;;;;;;5024504;28;19986;-76
2024/03/01 12:19:56;;;;;;;;;;;8.90;91.30;;;;;;5024813;28;20001;-76
2024/03/01 12:22:27;;;;;;;;;;;8.80;91.30;;;;;;5023272;28;20024;-76
2024/03/01 12:24:53;;;;;;;;;;;9.20;91.40;;;;;;5025018;28;20011;-76
2024/03/01 12:27:22;;;;;;;;;;;9.20;90.90;;;;;;5023139;28;19986;-76
2024/03/01 12:29:50;;;;;;;;;;;9.10;91.10;;;;;;5022892;28;19994;-76
2024/03/01 12:32:34;;;;;;;;;;;9.00;91.00;;;;;;5022410;28;19992;-76
2024/03/01 12:35:19;;;;;;;;;;;9.00;91.00;;;;;;5021839;28;20772;-76
2024/03/01 12:37:47;;;;;;;;;;;8.70;91.70;;;;;;5024430;28;20559;-76
2024/03/01 12:40:16;;;;;;;;;;;8.70;91.70;;;;;;5024203;28;19990;-76
2024/03/01 12:42:59;;;;;;;;;;;8.60;91.90;;;;;;5025127;28;19994;-76
2024/03/01 12:45:34;;;;;;;;;;;9.00;92.10;;;;;;5022262;28;19992;-76
2024/03/01 12:48:15;;;;;;;;;;;9.00;91.70;;;;;;5023725;28;20146;-76
2024/03/01 12:50:53;;;;;;;;;;;8.80;92.20;;;;;;5024433;28;20017;-76
2024/03/01 12:53:28;;;;;;;;;;;8.80;92.40;;;;;;5021947;28;20040;-75
2024/03/01 12:56:00;;;;;;;;;;;8.60;92.60;;;;;;5020735;28;20495;-76
2024/03/01 12:58:47;;;;;;;;;;;8.60;92.80;;;;;;5024705;28;19996;-76
2024/03/01 13:01:15;;;;;;;;;;;8.60;92.90;;;;;;5023586;28;19996;-76
2024/03/01 13:03:59;;;;;;;;;;;8.60;92.80;;;;;;5018289;28;20009;-76
2024/03/01 13:06:25;;;;;;;;;;;8.40;93.10;;;;;;5022598;28;20039;-76
2024/03/01 13:08:59;;;;;;;;;;;8.50;93.30;;;;;;5021019;28;19986;-75
2024/03/01 13:11:26;;;;;;;;;;;8.60;93.20;;;;;;5022610;28;20009;-76
2024/03/01 13:14:03;;;;;;;;;;;8.50;93.60;;;;;;5023611;28;19985;-75
2024/03/01 13:16:29;;;;;;;;;;;8.50;93.30;;;;;;5023195;28;20731;-76
2024/03/01 13:18:58;;;;;;;;;;;8.20;93.60;;;;;;5022241;28;19997;-75
2024/03/01 13:21:26;;;;;;;;;;;8.30;94.60;;;;;;5023665;28;19981;-75
2024/03/01 13:24:10;;;;;;;;;;;8.30;93.90;;;;;;5023745;28;20080;-75
2024/03/01 13:26:52;;;;;;;;;;;8.40;93.80;;;;;;5023317;28;19988;-75
2024/03/01 13:29:17;;;;;;;;;;;8.40;94.20;;;;;;5013634;28;19993;-75
2024/03/01 13:31:46;;;;;;;;;;;8.30;94.40;;;;;;5023025;28;19985;-76
2024/03/01 13:34:13;;;;;;;;;;;8.20;95.00;;;;;;5023639;28;20152;-76
2024/03/01 13:36:41;;;;;;;;;;;8.30;95.10;;;;;;5022702;28;19993;-75
2024/03/01 13:39:19;;;;;;;;;;;8.50;94.70;;;;;;5023297;28;20030;-75
2024/03/01 13:41:53;;;;;;;;;;;8.60;94.60;;;;;;5022094;28;20420;-76
2024/03/01 13:44:26;;;;;;;;;;;8.60;94.20;;;;;;5022701;28;20031;-75
2024/03/01 13:47:06;;;;;;;;;;;8.50;94.20;;;;;;5022554;28;20060;-76
2024/03/01 13:49:36;;;;;;;;;;;8.70;94.30;;;;;;5023094;28;20020;-76
2024/03/01 13:52:02;;;;;;;;;;;8.80;93.90;;;;;;5022456;28;19994;-75
2024/03/01 13:54:30;;;;;;;;;;;8.80;93.80;;;;;;5021934;28;20441;-75
2024/03/01 13:56:57;;;;;;;;;;;8.60;93.80;;;;;;5021982;28;20043;-76
2024/03/01 13:59:22;;;;;;;;;;;8.80;94.00;;;;;;5022508;28;20512;-76
2024/03/01 14:01:49;;;;;;;;;;;8.80;93.60;;;;;;5021538;28;19994;-75
2024/03/01 14:04:15;;;;;;;;;;;8.90;93.70;;;;;;5020841;28;20063;-75
2024/03/01 14:06:45;;;;;;;;;;;8.70;93.60;;;;;;5022393;28;20268;-76
2024/03/01 14:09:12;;;;;;;;;;;8.80;93.60;;;;;;5018534;28;19986;-75
2024/03/01 14:11:38;;;;;;;;;;;8.70;93.60;;;;;;5021811;28;19986;-75
2024/03/01 14:14:04;;;;;;;;;;;8.80;93.70;;;;;;5022877;28;19996;-75
2024/03/01 14:16:33;;;;;;;;;;;8.70;93.60;;;;;;5022785;28;20045;-75
2024/03/01 14:18:58;;;;;;;;;;;8.90;93.60;;;;;;5022685;28;20039;-75
2024/03/01 14:21:24;;;;;;;;;;;8.90;93.40;;;;;;5023005;28;19989;-76
2024/03/01 14:23:51;;;;;;;;;;;8.80;93.20;;;;;;5021697;28;20138;-75
2024/03/01 14:26:17;;;;;;;;;;;8.80;93.20;;;;;;5016447;28;20068;-75
2024/03/01 14:28:45;;;;;;;;;;;8.70;93.50;;;;;;5022179;28;20460;-76
2024/03/01 14:31:11;;;;;;;;;;;8.70;93.90;;;;;;5022220;28;20043;-75
2024/03/01 14:33:37;;;;;;;;;;;8.70;93.40;;;;;;5021999;28;19985;-75
2024/03/01 14:36:06;;;;;;;;;;;8.90;93.60;;;;;;5022928;28;20667;-76